sensor_id;sensor_type;location;lat;lon;timestamp;temperature;humidity
7566;DHT22;3824;48.010;7.832;2022-10-19T00:00:21;14.10;99.90
7566;DHT22;3824;48.010;7.832;2022-10-19T00:02:47;14.10;99.90
7566;DHT22;3824;48.010;7.832;2022-10-19T00:05:14;14.10;99.90
7566;DHT22;3824;48.010;7.832;2022-10-19T00:07:41;14.10;99.90
7566;DHT22;3824;48.010;7.832;2022-10-19T00:10:08;14.10;99.90
7566;DHT22;3824;48.010;7.832;2022-10-19T00:12:36;14.10;99.90
7566;DHT22;3824;48.010;7.832;2022-10-19T00:15:03;14.10;99.90
7566;DHT22;3824;48.010;7.832;2022-10-19T00:17:32;14.10;99.90
7566;DHT22;3824;48.010;7.832;2022-10-19T00:19:59;14.10;99.90
7566;DHT22;3824;48.010;7.832;2022-10-19T00:22:26;14.10;99.90
7566;DHT22;3824;48.010;7.832;2022-10-19T00:24:55;14.10;99.90
7566;DHT22;3824;48.010;7.832;2022-10-19T00:27:22;14.10;99.90
7566;DHT22;3824;48.010;7.832;2022-10-19T00:29:49;14.10;99.90
7566;DHT22;3824;48.010;7.832;2022-10-19T00:32:16;14.30;99.90
7566;DHT22;3824;48.010;7.832;2022-10-19T00:34:44;14.10;99.90
7566;DHT22;3824;48.010;7.832;2022-10-19T00:37:11;14.10;99.90
7566;DHT22;3824;48.010;7.832;2022-10-19T00:39:37;14.00;99.90
7566;DHT22;3824;48.010;7.832;2022-10-19T00:42:04;13.90;99.90
7566;DHT22;3824;48.010;7.832;2022-10-19T00:44:58;14.00;99.90
7566;DHT22;3824;48.010;7.832;2022-10-19T00:47:25;13.90;99.90
7566;DHT22;3824;48.010;7.832;2022-10-19T00:49:54;13.90;99.90
7566;DHT22;3824;48.010;7.832;2022-10-19T00:52:23;14.00;99.90
7566;DHT22;3824;48.010;7.832;2022-10-19T00:54:51;13.90;99.90
7566;DHT22;3824;48.010;7.832;2022-10-19T00:57:19;13.90;99.90
7566;DHT22;3824;48.010;7.832;2022-10-19T00:59:47;13.90;99.90
7566;DHT22;3824;48.010;7.832;2022-10-19T01:02:14;13.90;99.90
7566;DHT22;3824;48.010;7.832;2022-10-19T01:04:44;13.80;99.90
7566;DHT22;3824;48.010;7.832;2022-10-19T01:07:14;13.90;99.90
7566;DHT22;3824;48.010;7.832;2022-10-19T01:09:41;13.80;99.90
7566;DHT22;3824;48.010;7.832;2022-10-19T01:12:20;13.80;99.90
7566;DHT22;3824;48.010;7.832;2022-10-19T01:14:59;14.30;99.90
7566;DHT22;3824;48.010;7.832;2022-10-19T01:17:35;13.90;99.90
7566;DHT22;3824;48.010;7.832;2022-10-19T01:23:27;14.00;99.90
7566;DHT22;3824;48.010;7.832;2022-10-19T01:26:02;14.20;99.90
7566;DHT22;3824;48.010;7.832;2022-10-19T01:28:44;14.50;99.90
7566;DHT22;3824;48.010;7.832;2022-10-19T01:31:20;14.40;99.90
7566;DHT22;3824;48.010;7.832;2022-10-19T01:33:56;14.70;99.90
7566;DHT22;3824;48.010;7.832;2022-10-19T01:36:31;14.60;99.90
7566;DHT22;3824;48.010;7.832;2022-10-19T01:39:08;14.60;99.90
7566;DHT22;3824;48.010;7.832;2022-10-19T01:41:42;14.70;99.90
7566;DHT22;3824;48.010;7.832;2022-10-19T01:44:15;14.70;99.90
7566;DHT22;3824;48.010;7.832;2022-10-19T01:46:47;14.80;99.90
7566;DHT22;3824;48.010;7.832;2022-10-19T01:49:19;14.90;99.90
7566;DHT22;3824;48.010;7.832;2022-10-19T01:51:53;15.00;99.90
7566;DHT22;3824;48.010;7.832;2022-10-19T01:54:23;15.10;99.90
7566;DHT22;3824;48.010;7.832;2022-10-19T01:56:53;15.00;99.90
7566;DHT22;3824;48.010;7.832;2022-10-19T01:59:22;15.00;99.90
7566;DHT22;3824;48.010;7.832;2022-10-19T02:01:52;15.00;99.90
7566;DHT22;3824;48.010;7.832;2022-10-19T02:04:20;15.00;99.90
7566;DHT22;3824;48.010;7.832;2022-10-19T02:06:49;14.80;99.90
7566;DHT22;3824;48.010;7.832;2022-10-19T02:09:16;14.80;99.90
7566;DHT22;3824;48.010;7.832;2022-10-19T02:11:45;14.80;99.90
7566;DHT22;3824;48.010;7.832;2022-10-19T02:14:14;14.90;99.90
7566;DHT22;3824;48.010;7.832;2022-10-19T02:16:46;14.70;99.90
7566;DHT22;3824;48.010;7.832;2022-10-19T02:19:17;15.00;99.90
7566;DHT22;3824;48.010;7.832;2022-10-19T02:21:45;14.60;99.90
7566;DHT22;3824;48.010;7.832;2022-10-19T02:24:12;14.50;99.90
7566;DHT22;3824;48.010;7.832;2022-10-19T02:26:39;14.30;99.90
7566;DHT22;3824;48.010;7.832;2022-10-19T02:29:07;14.20;99.90
7566;DHT22;3824;48.010;7.832;2022-10-19T02:31:35;14.10;99.90
7566;DHT22;3824;48.010;7.832;2022-10-19T02:34:02;14.10;99.90
7566;DHT22;3824;48.010;7.832;2022-10-19T02:36:31;14.00;99.90
7566;DHT22;3824;48.010;7.832;2022-10-19T02:38:58;14.20;99.90
7566;DHT22;3824;48.010;7.832;2022-10-19T02:41:30;14.00;99.90
7566;DHT22;3824;48.010;7.832;2022-10-19T02:44:00;14.00;99.90
7566;DHT22;3824;48.010;7.832;2022-10-19T02:46:33;14.00;99.90
7566;DHT22;3824;48.010;7.832;2022-10-19T02:49:02;13.90;99.90
7566;DHT22;3824;48.010;7.832;2022-10-19T02:51:32;13.90;99.90
7566;DHT22;3824;48.010;7.832;2022-10-19T02:54:00;13.80;99.90
7566;DHT22;3824;48.010;7.832;2022-10-19T02:56:27;13.80;99.90
7566;DHT22;3824;48.010;7.832;2022-10-19T02:58:54;13.80;99.90
7566;DHT22;3824;48.010;7.832;2022-10-19T03:01:20;13.90;99.90
7566;DHT22;3824;48.010;7.832;2022-10-19T03:03:47;13.80;99.90
7566;DHT22;3824;48.010;7.832;2022-10-19T03:06:14;13.80;99.90
7566;DHT22;3824;48.010;7.832;2022-10-19T03:08:42;13.60;99.90
7566;DHT22;3824;48.010;7.832;2022-10-19T03:11:09;13.70;99.90
7566;DHT22;3824;48.010;7.832;2022-10-19T03:13:36;13.70;99.90
7566;DHT22;3824;48.010;7.832;2022-10-19T03:16:07;13.90;99.90
7566;DHT22;3824;48.010;7.832;2022-10-19T03:18:34;13.60;99.90
7566;DHT22;3824;48.010;7.832;2022-10-19T03:21:02;13.60;99.90
7566;DHT22;3824;48.010;7.832;2022-10-19T03:23:29;13.60;99.90
7566;DHT22;3824;48.010;7.832;2022-10-19T03:25:57;13.50;99.90
7566;DHT22;3824;48.010;7.832;2022-10-19T03:28:24;13.50;99.90
7566;DHT22;3824;48.010;7.832;2022-10-19T03:30:51;13.80;99.90
7566;DHT22;3824;48.010;7.832;2022-10-19T03:33:17;13.50;99.90
7566;DHT22;3824;48.010;7.832;2022-10-19T03:35:44;13.50;99.90
7566;DHT22;3824;48.010;7.832;2022-10-19T03:38:11;13.60;99.90
7566;DHT22;3824;48.010;7.832;2022-10-19T03:40:38;13.70;99.90
7566;DHT22;3824;48.010;7.832;2022-10-19T03:43:07;13.80;99.90
7566;DHT22;3824;48.010;7.832;2022-10-19T03:45:33;13.90;99.90
7566;DHT22;3824;48.010;7.832;2022-10-19T03:48:00;14.00;99.90
7566;DHT22;3824;48.010;7.832;2022-10-19T03:50:27;14.00;99.90
7566;DHT22;3824;48.010;7.832;2022-10-19T03:52:54;14.10;99.90
7566;DHT22;3824;48.010;7.832;2022-10-19T03:55:21;14.10;99.90
7566;DHT22;3824;48.010;7.832;2022-10-19T03:57:47;14.00;99.90
7566;DHT22;3824;48.010;7.832;2022-10-19T04:00:16;14.00;99.90
7566;DHT22;3824;48.010;7.832;2022-10-19T04:02:43;14.00;99.90
7566;DHT22;3824;48.010;7.832;2022-10-19T04:05:10;14.30;99.90
7566;DHT22;3824;48.010;7.832;2022-10-19T04:07:36;14.10;99.90
7566;DHT22;3824;48.010;7.832;2022-10-19T04:10:04;13.90;99.90
7566;DHT22;3824;48.010;7.832;2022-10-19T04:12:32;13.90;99.90
7566;DHT22;3824;48.010;7.832;2022-10-19T04:14:59;13.80;99.90
7566;DHT22;3824;48.010;7.832;2022-10-19T04:17:27;13.80;99.90
7566;DHT22;3824;48.010;7.832;2022-10-19T04:19:53;13.80;99.90
7566;DHT22;3824;48.010;7.832;2022-10-19T04:22:20;13.80;99.90
7566;DHT22;3824;48.010;7.832;2022-10-19T04:24:47;13.80;99.90
7566;DHT22;3824;48.010;7.832;2022-10-19T04:27:14;13.70;99.90
7566;DHT22;3824;48.010;7.832;2022-10-19T04:29:41;13.70;99.90
7566;DHT22;3824;48.010;7.832;2022-10-19T04:32:07;13.70;99.90
7566;DHT22;3824;48.010;7.832;2022-10-19T04:34:35;13.80;99.90
7566;DHT22;3824;48.010;7.832;2022-10-19T04:37:02;13.90;99.90
7566;DHT22;3824;48.010;7.832;2022-10-19T04:39:29;14.00;99.90
7566;DHT22;3824;48.010;7.832;2022-10-19T04:41:56;14.10;99.90
7566;DHT22;3824;48.010;7.832;2022-10-19T04:44:23;14.20;99.90
7566;DHT22;3824;48.010;7.832;2022-10-19T04:46:49;14.20;99.90
7566;DHT22;3824;48.010;7.832;2022-10-19T04:49:16;14.50;99.90
7566;DHT22;3824;48.010;7.832;2022-10-19T04:51:45;14.20;99.90
7566;DHT22;3824;48.010;7.832;2022-10-19T04:54:12;14.30;99.90
7566;DHT22;3824;48.010;7.832;2022-10-19T04:56:38;14.30;99.90
7566;DHT22;3824;48.010;7.832;2022-10-19T04:59:05;14.20;99.90
7566;DHT22;3824;48.010;7.832;2022-10-19T05:01:32;14.20;99.90
7566;DHT22;3824;48.010;7.832;2022-10-19T05:04:00;14.20;99.90
7566;DHT22;3824;48.010;7.832;2022-10-19T05:06:28;14.20;99.90
7566;DHT22;3824;48.010;7.832;2022-10-19T05:08:57;14.20;99.90
7566;DHT22;3824;48.010;7.832;2022-10-19T05:11:24;14.10;99.90
7566;DHT22;3824;48.010;7.832;2022-10-19T05:13:51;14.00;99.90
7566;DHT22;3824;48.010;7.832;2022-10-19T05:16:19;12.30;99.90
7566;DHT22;3824;48.010;7.832;2022-10-19T05:18:47;14.00;99.90
7566;DHT22;3824;48.010;7.832;2022-10-19T05:21:16;13.90;99.90
7566;DHT22;3824;48.010;7.832;2022-10-19T05:23:43;14.10;99.90
7566;DHT22;3824;48.010;7.832;2022-10-19T05:26:12;14.00;99.90
7566;DHT22;3824;48.010;7.832;2022-10-19T05:28:40;13.90;99.90
7566;DHT22;3824;48.010;7.832;2022-10-19T05:31:09;13.90;99.90
7566;DHT22;3824;48.010;7.832;2022-10-19T05:33:36;13.90;99.90
7566;DHT22;3824;48.010;7.832;2022-10-19T05:36:15;13.90;99.90
7566;DHT22;3824;48.010;7.832;2022-10-19T05:38:42;13.90;99.90
7566;DHT22;3824;48.010;7.832;2022-10-19T05:41:10;13.90;99.90
7566;DHT22;3824;48.010;7.832;2022-10-19T05:43:38;14.10;99.90
7566;DHT22;3824;48.010;7.832;2022-10-19T05:46:06;14.20;99.90
7566;DHT22;3824;48.010;7.832;2022-10-19T05:48:34;14.00;99.90
7566;DHT22;3824;48.010;7.832;2022-10-19T05:51:02;14.00;99.90
7566;DHT22;3824;48.010;7.832;2022-10-19T05:53:29;13.90;99.90
7566;DHT22;3824;48.010;7.832;2022-10-19T05:55:56;13.80;99.90
7566;DHT22;3824;48.010;7.832;2022-10-19T05:58:25;13.80;99.90
7566;DHT22;3824;48.010;7.832;2022-10-19T06:00:52;13.60;99.90
7566;DHT22;3824;48.010;7.832;2022-10-19T06:03:20;13.80;99.90
7566;DHT22;3824;48.010;7.832;2022-10-19T06:05:47;13.70;99.90
7566;DHT22;3824;48.010;7.832;2022-10-19T06:08:14;13.90;99.90
7566;DHT22;3824;48.010;7.832;2022-10-19T06:10:41;13.80;99.90
7566;DHT22;3824;48.010;7.832;2022-10-19T06:13:08;13.80;99.90
7566;DHT22;3824;48.010;7.832;2022-10-19T06:15:37;13.80;99.90
7566;DHT22;3824;48.010;7.832;2022-10-19T06:18:05;13.80;99.90
7566;DHT22;3824;48.010;7.832;2022-10-19T06:20:33;13.70;99.90
7566;DHT22;3824;48.010;7.832;2022-10-19T06:23:00;13.80;99.90
7566;DHT22;3824;48.010;7.832;2022-10-19T06:25:27;13.50;99.90
7566;DHT22;3824;48.010;7.832;2022-10-19T06:27:54;13.40;99.90
7566;DHT22;3824;48.010;7.832;2022-10-19T06:30:21;13.30;99.90
7566;DHT22;3824;48.010;7.832;2022-10-19T06:32:49;13.20;99.90
7566;DHT22;3824;48.010;7.832;2022-10-19T06:35:16;13.30;99.90
7566;DHT22;3824;48.010;7.832;2022-10-19T06:37:43;11.90;99.90
7566;DHT22;3824;48.010;7.832;2022-10-19T06:40:10;13.30;99.90
7566;DHT22;3824;48.010;7.832;2022-10-19T06:42:37;13.40;99.90
7566;DHT22;3824;48.010;7.832;2022-10-19T06:45:05;13.40;99.90
7566;DHT22;3824;48.010;7.832;2022-10-19T06:47:33;13.50;99.90
7566;DHT22;3824;48.010;7.832;2022-10-19T06:50:01;13.50;99.90
7566;DHT22;3824;48.010;7.832;2022-10-19T06:52:28;13.50;99.90
7566;DHT22;3824;48.010;7.832;2022-10-19T06:54:55;13.70;99.90
7566;DHT22;3824;48.010;7.832;2022-10-19T06:57:22;13.50;99.90
7566;DHT22;3824;48.010;7.832;2022-10-19T06:59:49;13.50;99.90
7566;DHT22;3824;48.010;7.832;2022-10-19T07:02:16;13.50;99.90
7566;DHT22;3824;48.010;7.832;2022-10-19T07:04:42;13.60;99.90
7566;DHT22;3824;48.010;7.832;2022-10-19T07:07:11;13.70;99.90
7566;DHT22;3824;48.010;7.832;2022-10-19T07:09:38;13.80;99.90
7566;DHT22;3824;48.010;7.832;2022-10-19T07:12:05;14.00;99.90
7566;DHT22;3824;48.010;7.832;2022-10-19T07:14:33;14.10;99.90
7566;DHT22;3824;48.010;7.832;2022-10-19T07:17:03;14.20;99.90
7566;DHT22;3824;48.010;7.832;2022-10-19T07:19:30;14.30;99.90
7566;DHT22;3824;48.010;7.832;2022-10-19T07:21:57;14.40;99.90
7566;DHT22;3824;48.010;7.832;2022-10-19T07:24:25;14.50;99.90
7566;DHT22;3824;48.010;7.832;2022-10-19T07:26:53;14.40;99.90
7566;DHT22;3824;48.010;7.832;2022-10-19T07:29:19;14.40;99.90
7566;DHT22;3824;48.010;7.832;2022-10-19T07:31:47;14.40;99.90
7566;DHT22;3824;48.010;7.832;2022-10-19T07:34:13;14.40;99.90
7566;DHT22;3824;48.010;7.832;2022-10-19T07:36:43;14.40;99.90
7566;DHT22;3824;48.010;7.832;2022-10-19T07:39:12;14.50;99.90
7566;DHT22;3824;48.010;7.832;2022-10-19T07:41:43;14.50;99.90
7566;DHT22;3824;48.010;7.832;2022-10-19T07:44:10;14.60;99.90
7566;DHT22;3824;48.010;7.832;2022-10-19T07:46:37;14.60;99.90
7566;DHT22;3824;48.010;7.832;2022-10-19T07:49:07;14.70;99.90
7566;DHT22;3824;48.010;7.832;2022-10-19T07:51:35;14.70;99.90
7566;DHT22;3824;48.010;7.832;2022-10-19T07:54:02;14.70;99.90
7566;DHT22;3824;48.010;7.832;2022-10-19T07:56:30;14.70;99.90
7566;DHT22;3824;48.010;7.832;2022-10-19T07:58:59;14.70;99.90
7566;DHT22;3824;48.010;7.832;2022-10-19T08:01:27;14.70;99.90
7566;DHT22;3824;48.010;7.832;2022-10-19T08:03:56;14.60;99.90
7566;DHT22;3824;48.010;7.832;2022-10-19T08:06:24;14.70;99.90
7566;DHT22;3824;48.010;7.832;2022-10-19T08:08:51;14.70;99.90
7566;DHT22;3824;48.010;7.832;2022-10-19T08:11:20;14.80;99.90
7566;DHT22;3824;48.010;7.832;2022-10-19T08:13:48;14.80;99.90
7566;DHT22;3824;48.010;7.832;2022-10-19T08:16:24;14.80;99.90
7566;DHT22;3824;48.010;7.832;2022-10-19T08:18:55;14.80;99.90
7566;DHT22;3824;48.010;7.832;2022-10-19T08:21:23;14.80;99.90
7566;DHT22;3824;48.010;7.832;2022-10-19T08:23:49;14.90;99.90
7566;DHT22;3824;48.010;7.832;2022-10-19T08:26:16;15.00;99.90
7566;DHT22;3824;48.010;7.832;2022-10-19T08:28:43;15.00;99.90
7566;DHT22;3824;48.010;7.832;2022-10-19T08:31:11;15.10;99.90
7566;DHT22;3824;48.010;7.832;2022-10-19T08:33:40;15.40;99.90
7566;DHT22;3824;48.010;7.832;2022-10-19T08:36:09;15.10;99.90
7566;DHT22;3824;48.010;7.832;2022-10-19T08:38:37;15.10;99.90
7566;DHT22;3824;48.010;7.832;2022-10-19T08:41:21;15.20;99.90
7566;DHT22;3824;48.010;7.832;2022-10-19T08:44:00;15.50;99.90
7566;DHT22;3824;48.010;7.832;2022-10-19T08:46:36;15.10;99.90
7566;DHT22;3824;48.010;7.832;2022-10-19T08:49:11;15.20;99.90
7566;DHT22;3824;48.010;7.832;2022-10-19T08:51:42;15.20;99.90
7566;DHT22;3824;48.010;7.832;2022-10-19T08:54:15;15.10;99.90
7566;DHT22;3824;48.010;7.832;2022-10-19T08:56:47;15.10;99.90
7566;DHT22;3824;48.010;7.832;2022-10-19T08:59:24;15.10;99.90
7566;DHT22;3824;48.010;7.832;2022-10-19T09:01:54;15.20;99.90
7566;DHT22;3824;48.010;7.832;2022-10-19T09:04:27;15.10;99.90
7566;DHT22;3824;48.010;7.832;2022-10-19T09:07:12;15.20;99.90
7566;DHT22;3824;48.010;7.832;2022-10-19T09:09:48;15.20;99.90
7566;DHT22;3824;48.010;7.832;2022-10-19T09:12:19;15.30;99.90
7566;DHT22;3824;48.010;7.832;2022-10-19T09:14:54;15.30;99.90
7566;DHT22;3824;48.010;7.832;2022-10-19T09:17:21;15.30;99.90
7566;DHT22;3824;48.010;7.832;2022-10-19T09:19:51;15.30;99.90
7566;DHT22;3824;48.010;7.832;2022-10-19T09:22:19;15.40;99.90
7566;DHT22;3824;48.010;7.832;2022-10-19T09:24:50;15.40;99.90
7566;DHT22;3824;48.010;7.832;2022-10-19T09:27:21;15.50;99.90
7566;DHT22;3824;48.010;7.832;2022-10-19T09:29:51;15.50;99.90
7566;DHT22;3824;48.010;7.832;2022-10-19T09:32:21;15.60;99.90
7566;DHT22;3824;48.010;7.832;2022-10-19T09:34:52;15.60;99.90
7566;DHT22;3824;48.010;7.832;2022-10-19T09:37:20;15.70;99.90
7566;DHT22;3824;48.010;7.832;2022-10-19T09:39:47;15.80;99.90
7566;DHT22;3824;48.010;7.832;2022-10-19T09:42:20;15.80;99.90
7566;DHT22;3824;48.010;7.832;2022-10-19T09:44:48;15.90;99.90
7566;DHT22;3824;48.010;7.832;2022-10-19T09:47:31;15.90;99.90
7566;DHT22;3824;48.010;7.832;2022-10-19T09:50:13;15.90;99.90
7566;DHT22;3824;48.010;7.832;2022-10-19T09:52:41;15.90;99.90
7566;DHT22;3824;48.010;7.832;2022-10-19T09:55:24;15.90;99.90
7566;DHT22;3824;48.010;7.832;2022-10-19T09:58:00;15.90;99.90
7566;DHT22;3824;48.010;7.832;2022-10-19T10:00:36;15.90;99.90
7566;DHT22;3824;48.010;7.832;2022-10-19T10:03:05;15.90;99.90
7566;DHT22;3824;48.010;7.832;2022-10-19T10:05:35;15.90;99.90
7566;DHT22;3824;48.010;7.832;2022-10-19T10:08:04;15.90;99.90
7566;DHT22;3824;48.010;7.832;2022-10-19T10:10:44;16.00;99.90
7566;DHT22;3824;48.010;7.832;2022-10-19T10:13:15;16.00;99.90
7566;DHT22;3824;48.010;7.832;2022-10-19T10:15:46;16.10;99.90
7566;DHT22;3824;48.010;7.832;2022-10-19T10:18:16;16.10;99.90
7566;DHT22;3824;48.010;7.832;2022-10-19T10:20:58;16.00;99.90
7566;DHT22;3824;48.010;7.832;2022-10-19T10:23:29;15.90;99.90
7566;DHT22;3824;48.010;7.832;2022-10-19T10:25:58;15.90;99.90
7566;DHT22;3824;48.010;7.832;2022-10-19T10:28:27;15.90;99.90
7566;DHT22;3824;48.010;7.832;2022-10-19T10:30:58;15.80;99.90
7566;DHT22;3824;48.010;7.832;2022-10-19T10:33:27;15.80;99.90
7566;DHT22;3824;48.010;7.832;2022-10-19T10:36:01;15.70;99.90
7566;DHT22;3824;48.010;7.832;2022-10-19T10:38:31;15.70;99.90
7566;DHT22;3824;48.010;7.832;2022-10-19T10:41:01;15.70;99.90
7566;DHT22;3824;48.010;7.832;2022-10-19T10:43:31;15.70;99.90
7566;DHT22;3824;48.010;7.832;2022-10-19T10:46:04;15.60;99.90
7566;DHT22;3824;48.010;7.832;2022-10-19T10:48:36;15.80;99.90
7566;DHT22;3824;48.010;7.832;2022-10-19T10:51:19;15.80;99.90
7566;DHT22;3824;48.010;7.832;2022-10-19T10:53:47;15.90;99.90
7566;DHT22;3824;48.010;7.832;2022-10-19T10:56:32;15.90;99.90
7566;DHT22;3824;48.010;7.832;2022-10-19T10:59:03;15.90;99.90
7566;DHT22;3824;48.010;7.832;2022-10-19T11:01:35;15.90;99.90
7566;DHT22;3824;48.010;7.832;2022-10-19T11:04:06;15.90;99.90
7566;DHT22;3824;48.010;7.832;2022-10-19T11:06:40;15.90;99.90
7566;DHT22;3824;48.010;7.832;2022-10-19T11:09:12;15.90;99.90
7566;DHT22;3824;48.010;7.832;2022-10-19T11:11:44;15.80;99.90
7566;DHT22;3824;48.010;7.832;2022-10-19T11:14:26;15.70;99.90
7566;DHT22;3824;48.010;7.832;2022-10-19T11:16:56;15.50;99.90
7566;DHT22;3824;48.010;7.832;2022-10-19T11:19:26;15.50;99.90
7566;DHT22;3824;48.010;7.832;2022-10-19T11:22:01;15.50;99.90
7566;DHT22;3824;48.010;7.832;2022-10-19T11:24:38;15.60;99.90
7566;DHT22;3824;48.010;7.832;2022-10-19T11:27:18;15.60;99.90
7566;DHT22;3824;48.010;7.832;2022-10-19T11:30:02;15.80;99.90
7566;DHT22;3824;48.010;7.832;2022-10-19T11:32:38;15.90;99.90
7566;DHT22;3824;48.010;7.832;2022-10-19T11:35:25;16.10;99.90
7566;DHT22;3824;48.010;7.832;2022-10-19T11:38:05;16.10;99.90
7566;DHT22;3824;48.010;7.832;2022-10-19T11:40:37;16.30;99.90
7566;DHT22;3824;48.010;7.832;2022-10-19T11:43:09;16.30;99.90
7566;DHT22;3824;48.010;7.832;2022-10-19T11:45:49;16.40;99.90
7566;DHT22;3824;48.010;7.832;2022-10-19T11:48:42;16.40;99.90
7566;DHT22;3824;48.010;7.832;2022-10-19T11:51:17;16.50;99.90
7566;DHT22;3824;48.010;7.832;2022-10-19T11:53:57;16.50;99.90
7566;DHT22;3824;48.010;7.832;2022-10-19T11:56:29;16.50;99.90
7566;DHT22;3824;48.010;7.832;2022-10-19T11:59:04;16.50;99.90
7566;DHT22;3824;48.010;7.832;2022-10-19T12:01:49;16.40;99.90
7566;DHT22;3824;48.010;7.832;2022-10-19T12:04:27;16.40;99.90
7566;DHT22;3824;48.010;7.832;2022-10-19T12:07:07;16.40;99.90
7566;DHT22;3824;48.010;7.832;2022-10-19T12:09:42;16.30;99.90
7566;DHT22;3824;48.010;7.832;2022-10-19T12:12:25;16.20;99.90
7566;DHT22;3824;48.010;7.832;2022-10-19T12:15:02;16.20;99.90
7566;DHT22;3824;48.010;7.832;2022-10-19T12:17:32;16.20;99.90
7566;DHT22;3824;48.010;7.832;2022-10-19T12:20:04;16.30;99.90
7566;DHT22;3824;48.010;7.832;2022-10-19T12:22:33;16.30;99.90
7566;DHT22;3824;48.010;7.832;2022-10-19T12:25:05;16.30;99.90
7566;DHT22;3824;48.010;7.832;2022-10-19T12:27:34;16.30;99.90
7566;DHT22;3824;48.010;7.832;2022-10-19T12:30:06;16.20;99.90
7566;DHT22;3824;48.010;7.832;2022-10-19T12:32:42;16.10;99.90
7566;DHT22;3824;48.010;7.832;2022-10-19T12:35:23;16.10;99.90
7566;DHT22;3824;48.010;7.832;2022-10-19T12:37:56;16.10;99.90
7566;DHT22;3824;48.010;7.832;2022-10-19T12:40:33;16.10;99.90
7566;DHT22;3824;48.010;7.832;2022-10-19T12:43:08;16.10;99.90
7566;DHT22;3824;48.010;7.832;2022-10-19T12:45:39;16.10;99.90
7566;DHT22;3824;48.010;7.832;2022-10-19T12:48:21;16.00;99.90
7566;DHT22;3824;48.010;7.832;2022-10-19T12:51:06;16.00;99.90
7566;DHT22;3824;48.010;7.832;2022-10-19T12:53:35;15.90;99.90
7566;DHT22;3824;48.010;7.832;2022-10-19T12:56:06;15.90;99.90
7566;DHT22;3824;48.010;7.832;2022-10-19T12:58:38;15.90;99.90
7566;DHT22;3824;48.010;7.832;2022-10-19T13:01:06;15.90;99.90
7566;DHT22;3824;48.010;7.832;2022-10-19T13:03:35;15.90;99.90
7566;DHT22;3824;48.010;7.832;2022-10-19T13:06:09;15.90;99.90
7566;DHT22;3824;48.010;7.832;2022-10-19T13:08:41;15.80;99.90
7566;DHT22;3824;48.010;7.832;2022-10-19T13:11:12;15.80;99.90
7566;DHT22;3824;48.010;7.832;2022-10-19T13:14:00;15.90;99.90
7566;DHT22;3824;48.010;7.832;2022-10-19T13:16:55;15.90;99.90
7566;DHT22;3824;48.010;7.832;2022-10-19T13:19:23;16.00;99.90
7566;DHT22;3824;48.010;7.832;2022-10-19T13:25:21;16.00;99.90
7566;DHT22;3824;48.010;7.832;2022-10-19T13:27:53;16.00;99.90
7566;DHT22;3824;48.010;7.832;2022-10-19T13:33:44;16.10;99.90
7566;DHT22;3824;48.010;7.832;2022-10-19T13:36:13;16.10;99.90
7566;DHT22;3824;48.010;7.832;2022-10-19T13:38:42;16.20;99.90
7566;DHT22;3824;48.010;7.832;2022-10-19T13:41:13;16.20;99.90
7566;DHT22;3824;48.010;7.832;2022-10-19T13:43:54;16.20;99.90
7566;DHT22;3824;48.010;7.832;2022-10-19T13:46:41;16.20;99.90
7566;DHT22;3824;48.010;7.832;2022-10-19T13:49:35;16.20;99.90
7566;DHT22;3824;48.010;7.832;2022-10-19T13:52:24;16.20;99.90
7566;DHT22;3824;48.010;7.832;2022-10-19T13:55:15;16.20;99.90
7566;DHT22;3824;48.010;7.832;2022-10-19T13:58:00;16.10;99.90
7566;DHT22;3824;48.010;7.832;2022-10-19T14:00:36;16.10;99.90
7566;DHT22;3824;48.010;7.832;2022-10-19T14:03:30;16.10;99.90
7566;DHT22;3824;48.010;7.832;2022-10-19T14:06:12;16.20;99.90
7566;DHT22;3824;48.010;7.832;2022-10-19T14:11:36;16.30;99.90
7566;DHT22;3824;48.010;7.832;2022-10-19T14:14:13;16.40;99.90
7566;DHT22;3824;48.010;7.832;2022-10-19T14:16:51;16.50;99.90
7566;DHT22;3824;48.010;7.832;2022-10-19T14:19:24;16.50;99.90
7566;DHT22;3824;48.010;7.832;2022-10-19T14:21:53;16.60;99.90
7566;DHT22;3824;48.010;7.832;2022-10-19T14:24:27;16.70;99.90
7566;DHT22;3824;48.010;7.832;2022-10-19T14:26:54;16.70;99.90
7566;DHT22;3824;48.010;7.832;2022-10-19T14:29:21;16.70;99.90
7566;DHT22;3824;48.010;7.832;2022-10-19T14:31:51;16.80;99.90
7566;DHT22;3824;48.010;7.832;2022-10-19T14:34:18;16.70;99.90
7566;DHT22;3824;48.010;7.832;2022-10-19T14:36:46;16.80;99.90
7566;DHT22;3824;48.010;7.832;2022-10-19T14:39:38;16.80;99.90
7566;DHT22;3824;48.010;7.832;2022-10-19T14:42:08;16.70;99.90
7566;DHT22;3824;48.010;7.832;2022-10-19T14:44:38;16.80;99.90
7566;DHT22;3824;48.010;7.832;2022-10-19T14:47:19;16.70;99.90
7566;DHT22;3824;48.010;7.832;2022-10-19T14:49:46;16.60;99.90
7566;DHT22;3824;48.010;7.832;2022-10-19T14:52:18;16.60;99.90
7566;DHT22;3824;48.010;7.832;2022-10-19T14:54:47;16.60;99.90
7566;DHT22;3824;48.010;7.832;2022-10-19T14:57:18;16.60;99.90
7566;DHT22;3824;48.010;7.832;2022-10-19T14:59:49;16.60;99.90
7566;DHT22;3824;48.010;7.832;2022-10-19T15:02:22;16.60;99.90
7566;DHT22;3824;48.010;7.832;2022-10-19T15:04:50;16.70;99.90
7566;DHT22;3824;48.010;7.832;2022-10-19T15:07:21;16.70;99.90
7566;DHT22;3824;48.010;7.832;2022-10-19T15:09:51;16.70;99.90
7566;DHT22;3824;48.010;7.832;2022-10-19T15:12:22;16.70;99.90
7566;DHT22;3824;48.010;7.832;2022-10-19T15:14:51;16.70;99.90
7566;DHT22;3824;48.010;7.832;2022-10-19T15:17:24;16.70;99.90
7566;DHT22;3824;48.010;7.832;2022-10-19T15:19:52;16.70;99.90
7566;DHT22;3824;48.010;7.832;2022-10-19T15:22:21;16.70;99.90
7566;DHT22;3824;48.010;7.832;2022-10-19T15:24:57;16.60;99.90
7566;DHT22;3824;48.010;7.832;2022-10-19T15:27:30;16.60;99.90
7566;DHT22;3824;48.010;7.832;2022-10-19T15:29:58;16.60;99.90
7566;DHT22;3824;48.010;7.832;2022-10-19T15:32:30;16.50;99.90
7566;DHT22;3824;48.010;7.832;2022-10-19T15:35:06;16.50;99.90
7566;DHT22;3824;48.010;7.832;2022-10-19T15:37:34;16.50;99.90
7566;DHT22;3824;48.010;7.832;2022-10-19T15:40:08;16.50;99.90
7566;DHT22;3824;48.010;7.832;2022-10-19T15:42:37;16.50;99.90
7566;DHT22;3824;48.010;7.832;2022-10-19T15:45:26;16.50;99.90
7566;DHT22;3824;48.010;7.832;2022-10-19T15:48:25;16.50;99.90
7566;DHT22;3824;48.010;7.832;2022-10-19T15:50:52;16.50;99.90
7566;DHT22;3824;48.010;7.832;2022-10-19T15:53:20;16.40;99.90
7566;DHT22;3824;48.010;7.832;2022-10-19T15:55:47;16.50;99.90
7566;DHT22;3824;48.010;7.832;2022-10-19T15:58:14;16.40;99.90
7566;DHT22;3824;48.010;7.832;2022-10-19T16:00:41;16.50;99.90
7566;DHT22;3824;48.010;7.832;2022-10-19T16:03:09;16.40;99.90
7566;DHT22;3824;48.010;7.832;2022-10-19T16:05:37;16.40;99.90
7566;DHT22;3824;48.010;7.832;2022-10-19T16:08:04;16.40;99.90
7566;DHT22;3824;48.010;7.832;2022-10-19T16:10:31;16.50;99.90
7566;DHT22;3824;48.010;7.832;2022-10-19T16:12:58;16.60;99.90
7566;DHT22;3824;48.010;7.832;2022-10-19T16:15:25;16.70;99.90
7566;DHT22;3824;48.010;7.832;2022-10-19T16:17:53;16.80;99.90
7566;DHT22;3824;48.010;7.832;2022-10-19T16:20:22;16.70;99.90
7566;DHT22;3824;48.010;7.832;2022-10-19T16:22:50;16.80;99.90
7566;DHT22;3824;48.010;7.832;2022-10-19T16:25:17;16.80;99.90
7566;DHT22;3824;48.010;7.832;2022-10-19T16:27:44;16.80;99.90
7566;DHT22;3824;48.010;7.832;2022-10-19T16:30:11;16.80;99.90
7566;DHT22;3824;48.010;7.832;2022-10-19T16:32:38;16.80;99.90
7566;DHT22;3824;48.010;7.832;2022-10-19T16:35:06;16.90;99.90
7566;DHT22;3824;48.010;7.832;2022-10-19T16:37:35;16.80;99.90